createdAt,value
2023-04-16T00:01:36.324Z,12.73
2023-04-16T00:04:04.269Z,12.66
2023-04-16T00:06:32.059Z,12.59
2023-04-16T00:08:59.434Z,12.57
2023-04-16T00:11:27.535Z,12.55
2023-04-16T00:13:55.502Z,12.51
2023-04-16T00:16:23.446Z,12.48
2023-04-16T00:18:50.924Z,12.46
2023-04-16T00:21:18.769Z,12.43
2023-04-16T00:23:46.537Z,12.29
2023-04-16T00:26:14.547Z,11.93
2023-04-16T00:28:42.342Z,11.66
2023-04-16T00:31:10.227Z,11.59
2023-04-16T00:33:37.652Z,11.62
2023-04-16T00:36:06.745Z,11.68
2023-04-16T00:38:35.044Z,11.74
2023-04-16T00:41:02.777Z,11.78
2023-04-16T00:43:31.732Z,11.74
2023-04-16T00:45:59.245Z,11.48
2023-04-16T00:48:28.140Z,11.24
2023-04-16T00:50:55.965Z,11.11
2023-04-16T00:53:23.466Z,10.96
2023-04-16T00:55:51.414Z,10.84
2023-04-16T00:58:19.355Z,10.81
2023-04-16T01:00:47.197Z,10.81
2023-04-16T01:03:14.766Z,10.90
2023-04-16T01:05:42.900Z,10.90
2023-04-16T01:08:20.663Z,10.92
2023-04-16T01:10:48.610Z,10.95
2023-04-16T01:13:18.863Z,10.99
2023-04-16T01:15:46.771Z,10.94
2023-04-16T01:18:16.252Z,10.84
2023-04-16T01:20:44.170Z,10.82
2023-04-16T01:23:11.881Z,10.87
2023-04-16T01:25:40.178Z,10.89
2023-04-16T01:28:07.956Z,10.98
2023-04-16T01:30:37.659Z,10.95
2023-04-16T01:33:05.513Z,10.90
2023-04-16T01:35:33.009Z,10.88
2023-04-16T01:38:00.955Z,10.91
2023-04-16T01:40:29.280Z,11.06
2023-04-16T01:42:57.263Z,11.12
2023-04-16T01:45:24.919Z,11.14
2023-04-16T01:47:52.984Z,11.10
2023-04-16T01:50:20.768Z,10.74
2023-04-16T01:52:48.650Z,10.65
2023-04-16T01:55:16.214Z,10.56
2023-04-16T01:57:43.832Z,10.48
2023-04-16T02:00:12.817Z,10.39
2023-04-16T02:02:40.693Z,10.34
2023-04-16T02:05:09.482Z,10.38
2023-04-16T02:07:37.557Z,10.51
2023-04-16T02:10:07.272Z,10.59
2023-04-16T02:12:35.261Z,10.47
2023-04-16T02:15:03.620Z,10.29
2023-04-16T02:17:31.418Z,10.03
2023-04-16T02:19:59.346Z,10.00
2023-04-16T02:22:27.240Z,9.93
2023-04-16T02:24:54.294Z,9.85
2023-04-16T02:27:22.024Z,9.85
2023-04-16T02:29:49.857Z,9.85
2023-04-16T02:32:18.365Z,9.86
2023-04-16T02:34:46.692Z,9.81
2023-04-16T02:37:15.658Z,9.84
2023-04-16T02:39:44.005Z,9.96
2023-04-16T02:42:11.950Z,10.06
2023-04-16T02:44:39.988Z,10.14
2023-04-16T02:47:07.834Z,10.21
2023-04-16T02:49:35.936Z,10.19
2023-04-16T02:52:03.454Z,10.23
2023-04-16T02:54:31.454Z,10.24
2023-04-16T02:56:59.722Z,10.31
2023-04-16T02:59:27.540Z,10.32
2023-04-16T03:01:55.557Z,10.19
2023-04-16T03:04:23.139Z,10.11
2023-04-16T03:06:50.729Z,10.05
2023-04-16T03:09:18.244Z,10.02
2023-04-16T03:11:45.974Z,10.04
2023-04-16T03:14:13.937Z,10.06
2023-04-16T03:16:42.271Z,10.11
2023-04-16T03:19:10.321Z,10.11
2023-04-16T03:21:38.232Z,10.09
2023-04-16T03:24:06.224Z,10.11
2023-04-16T03:26:34.223Z,10.17
2023-04-16T03:29:05.467Z,10.08
2023-04-16T03:31:33.004Z,10.02
2023-04-16T03:34:00.986Z,10.00
2023-04-16T03:36:28.511Z,10.00
2023-04-16T03:38:56.087Z,10.01
2023-04-16T03:41:24.082Z,9.88
2023-04-16T03:43:52.004Z,9.82
2023-04-16T03:46:20.407Z,9.61
2023-04-16T03:48:48.519Z,9.49
2023-04-16T03:51:16.218Z,9.41
2023-04-16T03:53:43.237Z,9.44
2023-04-16T03:56:11.103Z,9.39
2023-04-16T03:58:41.851Z,9.44
2023-04-16T04:01:10.234Z,9.39
2023-04-16T04:03:38.366Z,9.40
2023-04-16T04:06:10.266Z,9.32
2023-04-16T04:08:38.043Z,9.25
2023-04-16T04:11:06.115Z,9.23
2023-04-16T04:13:33.910Z,9.17
2023-04-16T04:16:02.436Z,9.21
2023-04-16T04:18:30.508Z,9.21
2023-04-16T04:20:57.973Z,9.30
2023-04-16T04:23:25.640Z,9.40
2023-04-16T04:25:53.921Z,9.49
2023-04-16T04:28:21.774Z,9.50
2023-04-16T04:30:49.950Z,9.42
2023-04-16T04:33:17.699Z,9.41
2023-04-16T04:35:45.646Z,9.32
2023-04-16T04:38:15.627Z,9.29
2023-04-16T04:40:44.478Z,9.23
2023-04-16T04:43:15.983Z,9.22
2023-04-16T04:45:44.302Z,9.21
2023-04-16T04:48:12.322Z,9.12
2023-04-16T04:50:40.957Z,9.03
2023-04-16T04:53:11.553Z,9.02
2023-04-16T04:55:40.157Z,9.10
2023-04-16T04:58:08.137Z,9.25
2023-04-16T05:00:39.082Z,9.33
2023-04-16T05:03:07.485Z,9.40
2023-04-16T05:05:35.273Z,9.53
2023-04-16T05:08:03.101Z,9.60
2023-04-16T05:10:30.771Z,9.71
2023-04-16T05:12:58.569Z,9.79
2023-04-16T05:15:26.217Z,9.92
2023-04-16T05:17:53.760Z,9.99
2023-04-16T05:20:23.034Z,10.06
2023-04-16T05:22:51.886Z,10.05
2023-04-16T05:25:19.531Z,10.12
2023-04-16T05:27:47.327Z,10.18
2023-04-16T05:30:15.235Z,10.26
2023-04-16T05:32:42.886Z,10.39
2023-04-16T05:35:11.351Z,10.46
2023-04-16T05:37:42.016Z,10.60
2023-04-16T05:40:13.649Z,10.79
2023-04-16T05:42:41.623Z,10.84
2023-04-16T05:45:14.427Z,10.97
2023-04-16T05:47:42.615Z,11.03
2023-04-16T05:50:12.189Z,11.06
2023-04-16T05:52:40.150Z,11.13
2023-04-16T05:55:08.840Z,11.24
2023-04-16T05:57:37.058Z,11.30
2023-04-16T06:00:06.791Z,11.39
2023-04-16T06:02:37.270Z,11.44
2023-04-16T06:05:06.465Z,11.57
2023-04-16T06:07:34.441Z,11.64
2023-04-16T06:10:02.441Z,11.68
2023-04-16T06:12:29.933Z,11.81
2023-04-16T06:14:57.560Z,11.94
2023-04-16T06:17:25.371Z,12.06
2023-04-16T06:19:53.392Z,12.01
2023-04-16T06:22:21.191Z,12.06
2023-04-16T06:24:48.770Z,12.06
2023-04-16T06:27:16.743Z,12.08
2023-04-16T06:29:44.508Z,12.09
2023-04-16T06:32:11.948Z,12.12
2023-04-16T06:34:39.598Z,12.12
2023-04-16T06:37:10.355Z,12.10
2023-04-16T06:39:41.994Z,12.16
2023-04-16T06:42:09.624Z,12.17
2023-04-16T06:44:37.560Z,12.20
2023-04-16T06:47:05.527Z,12.10
2023-04-16T06:49:33.128Z,12.10
2023-04-16T06:52:01.986Z,12.02
2023-04-16T06:54:30.235Z,12.00
2023-04-16T06:56:58.129Z,12.00
2023-04-16T06:59:25.917Z,12.01
2023-04-16T07:01:53.993Z,12.10
2023-04-16T07:04:21.907Z,12.20
2023-04-16T07:06:51.802Z,12.38
2023-04-16T07:09:19.252Z,12.53
2023-04-16T07:11:47.058Z,12.72
2023-04-16T07:14:15.095Z,12.85
2023-04-16T07:16:42.616Z,12.94
2023-04-16T07:19:10.350Z,12.95
2023-04-16T07:21:37.643Z,12.95
2023-04-16T07:24:05.656Z,12.91
2023-04-16T07:26:33.609Z,12.95
2023-04-16T07:29:01.469Z,13.05
2023-04-16T07:31:29.398Z,13.13
2023-04-16T07:34:04.505Z,13.27
2023-04-16T07:36:32.273Z,13.39
2023-04-16T07:39:00.174Z,13.51
2023-04-16T07:41:27.934Z,13.62
2023-04-16T07:43:55.555Z,13.71
2023-04-16T07:46:24.902Z,13.78
2023-04-16T07:48:53.916Z,13.98
2023-04-16T07:51:21.880Z,13.95
2023-04-16T07:53:49.841Z,14.06
2023-04-16T07:56:17.355Z,14.17
2023-04-16T07:58:45.246Z,14.26
2023-04-16T08:01:13.445Z,14.39
2023-04-16T08:03:41.253Z,14.51
2023-04-16T08:06:09.596Z,14.62
2023-04-16T08:08:37.163Z,14.74
2023-04-16T08:11:05.077Z,14.79
2023-04-16T08:13:33.725Z,14.74
2023-04-16T08:16:01.952Z,14.85
2023-04-16T08:18:29.983Z,15.03
2023-04-16T08:20:58.165Z,15.24
2023-04-16T08:23:25.564Z,15.28
2023-04-16T08:25:53.155Z,15.31
2023-04-16T08:28:21.282Z,15.42
2023-04-16T08:30:48.822Z,15.57
2023-04-16T08:33:16.753Z,15.62
2023-04-16T08:35:44.246Z,15.66
2023-04-16T08:38:13.312Z,15.80
2023-04-16T08:40:41.864Z,15.89
2023-04-16T08:43:12.407Z,15.98
2023-04-16T08:45:39.487Z,16.04
2023-04-16T08:48:07.601Z,16.11
2023-04-16T08:50:35.693Z,16.24
2023-04-16T08:53:07.008Z,16.42
2023-04-16T08:55:38.562Z,16.47
2023-04-16T08:58:36.731Z,16.62
2023-04-16T09:01:05.534Z,16.76
2023-04-16T09:03:36.155Z,16.72
2023-04-16T09:06:04.187Z,16.82
2023-04-16T09:08:32.286Z,16.79
2023-04-16T09:11:00.473Z,16.88
2023-04-16T09:13:28.067Z,16.99
2023-04-16T09:15:57.273Z,17.03
2023-04-16T09:18:24.812Z,17.05
2023-04-16T09:20:52.234Z,17.03
2023-04-16T09:23:19.709Z,17.07
2023-04-16T09:25:47.854Z,17.18
2023-04-16T09:28:57.870Z,17.26
2023-04-16T09:31:25.466Z,17.34
2023-04-16T09:34:09.652Z,17.47
2023-04-16T09:36:37.532Z,17.59
2023-04-16T09:39:05.347Z,17.56
2023-04-16T09:41:35.956Z,17.53
2023-04-16T09:44:06.997Z,17.61
2023-04-16T09:46:41.885Z,17.69
2023-04-16T09:49:16.693Z,17.68
2023-04-16T09:51:45.709Z,17.68
2023-04-16T09:54:13.673Z,17.70
2023-04-16T09:56:45.908Z,17.84
2023-04-16T09:59:21.108Z,17.85
2023-04-16T10:01:49.851Z,17.85
2023-04-16T10:04:17.057Z,17.90
2023-04-16T10:06:46.952Z,17.92
2023-04-16T10:09:14.890Z,18.09
2023-04-16T10:11:42.526Z,18.16
2023-04-16T10:14:10.484Z,18.17
2023-04-16T10:16:41.202Z,18.09
2023-04-16T10:19:09.468Z,18.22
2023-04-16T10:21:37.314Z,18.19
2023-04-16T10:24:05.923Z,18.09
2023-04-16T10:26:33.832Z,18.07
2023-04-16T10:29:01.227Z,18.21
2023-04-16T10:31:29.627Z,18.39
2023-04-16T10:33:56.875Z,18.48
2023-04-16T10:36:25.115Z,18.58
2023-04-16T10:38:59.042Z,18.62
2023-04-16T10:41:27.081Z,18.72
2023-04-16T10:43:54.717Z,18.74
2023-04-16T10:46:50.945Z,18.58
2023-04-16T10:49:19.341Z,18.60
2023-04-16T10:52:18.982Z,18.48
2023-04-16T10:54:47.914Z,18.40
2023-04-16T10:57:18.933Z,18.51
2023-04-16T10:59:46.675Z,18.57
2023-04-16T11:02:17.015Z,18.72
2023-04-16T11:04:49.326Z,18.91
2023-04-16T11:07:20.517Z,19.02
2023-04-16T11:10:02.097Z,19.27
2023-04-16T11:12:47.166Z,19.39
2023-04-16T11:15:15.851Z,19.56
2023-04-16T11:17:46.895Z,19.60
2023-04-16T11:20:27.401Z,19.73
2023-04-16T11:22:59.088Z,19.78
2023-04-16T11:25:30.306Z,19.86
2023-04-16T11:27:59.182Z,19.88
2023-04-16T11:30:31.237Z,19.97
2023-04-16T11:32:58.709Z,20.05
2023-04-16T11:35:25.441Z,20.13
2023-04-16T11:37:56.361Z,20.29
2023-04-16T11:40:24.084Z,20.46
2023-04-16T11:42:52.378Z,20.80
2023-04-16T11:45:23.516Z,21.26
2023-04-16T11:47:52.270Z,21.94
2023-04-16T11:50:22.120Z,22.49
2023-04-16T11:52:49.686Z,23.06
2023-04-16T11:55:17.798Z,23.41
2023-04-16T11:57:46.043Z,23.56
2023-04-16T12:00:15.248Z,23.56
2023-04-16T12:02:53.047Z,23.53
2023-04-16T12:05:39.201Z,23.66
2023-04-16T12:08:10.566Z,24.09
2023-04-16T12:10:39.309Z,24.73
2023-04-16T12:13:16.506Z,25.38
2023-04-16T12:16:19.673Z,25.58
2023-04-16T12:19:07.035Z,25.94
2023-04-16T12:22:06.679Z,26.52
2023-04-16T12:24:34.027Z,27.28
2023-04-16T12:27:03.504Z,27.54
2023-04-16T12:29:32.063Z,27.81
2023-04-16T12:32:00.203Z,27.55
2023-04-16T12:34:48.124Z,27.39
2023-04-16T12:37:15.479Z,27.12
2023-04-16T12:39:43.992Z,27.08
2023-04-16T12:42:13.281Z,27.22
2023-04-16T12:44:40.861Z,27.37
2023-04-16T12:47:09.123Z,27.50
2023-04-16T12:49:37.486Z,27.70
2023-04-16T12:52:08.760Z,27.99
2023-04-16T12:54:36.320Z,28.73
2023-04-16T12:57:28.795Z,29.24
2023-04-16T12:59:59.636Z,29.48
2023-04-16T13:02:46.881Z,28.60
2023-04-16T13:05:19.306Z,27.00
2023-04-16T13:07:49.204Z,25.89
2023-04-16T13:10:16.753Z,24.94
2023-04-16T13:12:47.362Z,23.90
2023-04-16T13:15:15.329Z,23.44
2023-04-16T13:17:45.470Z,23.13
2023-04-16T13:20:24.612Z,22.91
2023-04-16T13:22:52.488Z,22.91
2023-04-16T13:25:20.395Z,23.09
2023-04-16T13:27:48.365Z,23.28
2023-04-16T13:30:17.651Z,23.13
2023-04-16T13:32:45.513Z,23.24
2023-04-16T13:35:15.190Z,23.49
2023-04-16T13:37:42.737Z,24.79
2023-04-16T13:40:11.217Z,24.95
2023-04-16T13:42:38.754Z,24.78
2023-04-16T13:45:09.452Z,24.44
2023-04-16T13:47:36.799Z,24.11
2023-04-16T13:50:05.716Z,24.09
2023-04-16T13:52:33.628Z,24.23
2023-04-16T13:55:01.707Z,23.96
2023-04-16T13:57:29.173Z,23.50
2023-04-16T13:59:56.687Z,22.99
2023-04-16T14:02:26.094Z,22.72
2023-04-16T14:04:54.003Z,22.51
2023-04-16T14:07:26.041Z,22.46
2023-04-16T14:09:54.531Z,22.37
2023-04-16T14:12:22.246Z,22.31
2023-04-16T14:14:50.389Z,22.33
2023-04-16T14:17:18.086Z,22.35
2023-04-16T14:19:46.036Z,22.34
2023-04-16T14:22:17.721Z,22.40
2023-04-16T14:24:45.867Z,22.36
2023-04-16T14:27:13.688Z,22.40
2023-04-16T14:29:41.575Z,22.29
2023-04-16T14:32:09.142Z,22.07
2023-04-16T14:34:37.055Z,22.07
2023-04-16T14:37:04.306Z,22.21
2023-04-16T14:39:32.231Z,22.53
2023-04-16T14:42:00.241Z,22.94
2023-04-16T14:44:28.315Z,24.20
2023-04-16T14:47:03.106Z,24.69
2023-04-16T14:49:31.361Z,24.55
2023-04-16T14:51:58.966Z,24.32
2023-04-16T14:54:26.550Z,24.01
2023-04-16T14:56:54.650Z,23.61
2023-04-16T14:59:22.507Z,23.67
2023-04-16T15:01:50.248Z,23.36
2023-04-16T15:04:18.381Z,23.47
2023-04-16T15:06:46.587Z,23.30
2023-04-16T15:09:14.763Z,22.90
2023-04-16T15:11:42.741Z,22.73
2023-04-16T15:14:10.637Z,22.48
2023-04-16T15:16:38.067Z,22.16
2023-04-16T15:19:05.721Z,22.03
2023-04-16T15:21:33.198Z,21.89
2023-04-16T15:24:01.270Z,22.00
2023-04-16T15:26:29.817Z,21.93
2023-04-16T15:28:57.161Z,22.01
2023-04-16T15:31:25.535Z,22.18
2023-04-16T15:33:53.657Z,22.21
2023-04-16T15:36:21.267Z,22.28
2023-04-16T15:38:48.934Z,22.16
2023-04-16T15:41:16.437Z,22.16
2023-04-16T15:43:44.043Z,22.25
2023-04-16T15:46:11.849Z,22.30
2023-04-16T15:48:39.844Z,22.27
2023-04-16T15:51:07.732Z,22.00
2023-04-16T15:53:35.704Z,21.88
2023-04-16T15:56:03.198Z,21.80
2023-04-16T15:58:30.880Z,21.68
2023-04-16T16:00:58.989Z,21.72
2023-04-16T16:03:27.462Z,21.82
2023-04-16T16:05:55.545Z,21.81
2023-04-16T16:08:23.971Z,22.04
2023-04-16T16:10:52.257Z,21.93
2023-04-16T16:13:20.250Z,21.62
2023-04-16T16:15:48.199Z,21.28
2023-04-16T16:18:16.170Z,21.03
2023-04-16T16:20:44.393Z,20.85
2023-04-16T16:23:12.599Z,20.71
2023-04-16T16:25:42.117Z,20.55
2023-04-16T16:28:15.586Z,20.32
2023-04-16T16:30:43.168Z,20.14
2023-04-16T16:33:11.602Z,20.06
2023-04-16T16:35:39.492Z,19.95
2023-04-16T16:38:07.454Z,19.85
2023-04-16T16:40:35.456Z,19.83
2023-04-16T16:43:03.454Z,19.82
2023-04-16T16:45:31.440Z,19.70
2023-04-16T16:47:59.033Z,19.59
2023-04-16T16:50:26.900Z,19.48
2023-04-16T16:52:54.825Z,19.51
2023-04-16T16:55:23.425Z,19.48
2023-04-16T16:57:51.228Z,19.54
2023-04-16T17:00:20.819Z,19.56
2023-04-16T17:02:51.145Z,19.54
2023-04-16T17:05:19.191Z,19.36
2023-04-16T17:07:46.741Z,19.23
2023-04-16T17:10:21.045Z,19.07
2023-04-16T17:12:49.421Z,18.91
2023-04-16T17:15:18.508Z,18.69
2023-04-16T17:17:47.231Z,18.56
2023-04-16T17:20:14.870Z,18.48
2023-04-16T17:22:43.214Z,18.45
2023-04-16T17:25:12.116Z,18.34
2023-04-16T17:27:39.984Z,18.22
2023-04-16T17:30:11.763Z,18.04
2023-04-16T17:32:39.306Z,17.95
2023-04-16T17:35:09.435Z,17.90
2023-04-16T17:37:37.458Z,17.87
2023-04-16T17:40:07.980Z,17.76
2023-04-16T17:42:36.742Z,17.72
2023-04-16T17:45:05.403Z,17.67
2023-04-16T17:47:34.390Z,17.60
2023-04-16T17:50:02.196Z,17.53
2023-04-16T17:52:29.845Z,17.44
2023-04-16T17:55:01.301Z,17.38
2023-04-16T17:57:28.962Z,17.34
2023-04-16T17:59:57.043Z,17.25
2023-04-16T18:02:24.705Z,17.19
2023-04-16T18:04:52.684Z,17.18
2023-04-16T18:07:20.717Z,17.13
2023-04-16T18:09:48.321Z,17.07
2023-04-16T18:12:16.430Z,17.01
2023-04-16T18:14:45.064Z,16.98
2023-04-16T18:17:13.072Z,16.91
2023-04-16T18:19:43.670Z,16.86
2023-04-16T18:22:13.304Z,16.80
2023-04-16T18:24:41.285Z,16.74
2023-04-16T18:27:09.149Z,16.69
2023-04-16T18:29:38.793Z,16.64
2023-04-16T18:32:11.720Z,16.62
2023-04-16T18:34:40.051Z,16.54
2023-04-16T18:37:07.872Z,16.53
2023-04-16T18:39:36.547Z,16.43
2023-04-16T18:42:04.328Z,16.42
2023-04-16T18:44:32.364Z,16.41
2023-04-16T18:47:00.338Z,16.34
2023-04-16T18:49:28.006Z,16.29
2023-04-16T18:51:55.930Z,16.17
2023-04-16T18:54:23.784Z,16.12
2023-04-16T18:56:51.552Z,16.05
2023-04-16T18:59:19.543Z,16.00
2023-04-16T19:01:47.419Z,15.96
2023-04-16T19:04:15.125Z,15.92
2023-04-16T19:06:42.794Z,15.85
2023-04-16T19:09:11.740Z,15.73
2023-04-16T19:11:39.762Z,15.67
2023-04-16T19:14:08.199Z,15.67
2023-04-16T19:16:36.006Z,15.64
2023-04-16T19:19:03.863Z,15.61
2023-04-16T19:21:31.337Z,15.56
2023-04-16T19:23:58.786Z,15.44
2023-04-16T19:26:27.091Z,15.46
2023-04-16T19:28:54.513Z,15.45
2023-04-16T19:31:22.469Z,15.36
2023-04-16T19:33:50.445Z,15.35
2023-04-16T19:36:17.935Z,15.29
2023-04-16T19:38:45.922Z,15.20
2023-04-16T19:41:13.893Z,15.11
2023-04-16T19:43:41.760Z,15.08
2023-04-16T19:46:16.786Z,15.04
2023-04-16T19:48:44.735Z,14.95
2023-04-16T19:51:12.158Z,14.92
2023-04-16T19:53:39.915Z,14.87
2023-04-16T19:56:07.873Z,14.84
2023-04-16T19:58:35.450Z,14.73
2023-04-16T20:01:02.691Z,14.73
2023-04-16T20:03:30.616Z,14.76
2023-04-16T20:05:58.514Z,14.74
2023-04-16T20:08:26.405Z,14.68
2023-04-16T20:10:54.565Z,14.66
2023-04-16T20:13:23.044Z,14.67
2023-04-16T20:15:54.075Z,14.64
2023-04-16T20:18:21.557Z,14.65
2023-04-16T20:20:49.091Z,14.65
2023-04-16T20:23:16.547Z,14.62
2023-04-16T20:25:44.751Z,14.64
2023-04-16T20:28:12.731Z,14.65
2023-04-16T20:30:40.311Z,14.65
2023-04-16T20:33:08.912Z,14.60
2023-04-16T20:35:36.534Z,14.55
2023-04-16T20:38:04.479Z,14.50
2023-04-16T20:40:32.426Z,14.49
2023-04-16T20:43:00.438Z,14.47
2023-04-16T20:45:32.776Z,14.47
2023-04-16T20:48:09.115Z,14.44
2023-04-16T20:50:40.668Z,14.38
2023-04-16T20:53:08.580Z,14.36
2023-04-16T20:55:36.892Z,14.28
2023-04-16T20:58:04.424Z,14.23
2023-04-16T21:00:33.041Z,14.14
2023-04-16T21:03:01.035Z,14.12
2023-04-16T21:05:30.029Z,14.10
2023-04-16T21:07:57.948Z,14.03
2023-04-16T21:10:25.464Z,13.90
2023-04-16T21:12:53.341Z,13.77
2023-04-16T21:15:21.455Z,13.69
2023-04-16T21:17:49.365Z,13.65
2023-04-16T21:20:18.174Z,13.56
2023-04-16T21:22:46.116Z,13.56
2023-04-16T21:25:14.336Z,13.60
2023-04-16T21:27:42.258Z,13.59
2023-04-16T21:30:13.305Z,13.56
2023-04-16T21:32:40.966Z,13.43
2023-04-16T21:35:10.744Z,13.38
2023-04-16T21:37:38.798Z,13.36
2023-04-16T21:40:07.685Z,13.39
2023-04-16T21:42:42.390Z,13.37
2023-04-16T21:45:11.525Z,13.41
2023-04-16T21:47:39.548Z,13.37
2023-04-16T21:50:10.034Z,13.37
2023-04-16T21:52:40.742Z,13.35
2023-04-16T21:55:11.066Z,13.31
2023-04-16T21:57:38.973Z,13.27
2023-04-16T22:00:13.834Z,13.26
2023-04-16T22:03:01.730Z,13.21
2023-04-16T22:05:31.771Z,13.14
2023-04-16T22:08:02.496Z,13.10
2023-04-16T22:10:33.873Z,13.07
2023-04-16T22:13:06.193Z,13.13
2023-04-16T22:15:34.238Z,13.16
2023-04-16T22:18:01.995Z,13.23
2023-04-16T22:20:30.756Z,13.22
2023-04-16T22:22:58.778Z,13.18
2023-04-16T22:25:26.877Z,13.13
2023-04-16T22:27:54.752Z,13.14
2023-04-16T22:30:22.269Z,13.16
2023-04-16T22:32:50.251Z,13.08
2023-04-16T22:35:18.016Z,13.08
2023-04-16T22:37:45.582Z,13.08
2023-04-16T22:40:14.381Z,13.04
2023-04-16T22:42:41.984Z,13.06
2023-04-16T22:45:11.898Z,13.01
2023-04-16T22:47:39.454Z,12.91
2023-04-16T22:50:10.759Z,12.87
2023-04-16T22:52:38.761Z,12.80
2023-04-16T22:55:08.259Z,12.67
2023-04-16T22:57:35.816Z,12.67
2023-04-16T23:00:06.501Z,12.73
2023-04-16T23:02:34.465Z,12.75
2023-04-16T23:05:02.151Z,12.77
2023-04-16T23:07:30.180Z,12.74
2023-04-16T23:09:57.813Z,12.69
2023-04-16T23:12:25.597Z,12.64
2023-04-16T23:14:53.219Z,12.59
2023-04-16T23:17:21.156Z,12.54
2023-04-16T23:19:49.164Z,12.63
2023-04-16T23:22:17.407Z,12.68
2023-04-16T23:24:45.034Z,12.59
2023-04-16T23:27:12.947Z,12.45
2023-04-16T23:29:40.474Z,12.35
2023-04-16T23:32:08.571Z,12.29
2023-04-16T23:34:36.344Z,12.26
2023-04-16T23:37:04.304Z,12.16
2023-04-16T23:39:31.784Z,12.07
2023-04-16T23:41:59.718Z,12.04
2023-04-16T23:44:27.779Z,12.09
2023-04-16T23:46:55.391Z,12.09
2023-04-16T23:49:23.037Z,12.06
2023-04-16T23:51:50.550Z,11.96
2023-04-16T23:54:18.570Z,11.88
2023-04-16T23:56:46.258Z,11.84
2023-04-16T23:59:14.074Z,11.78
